.
WxDataArchive / Data Records for 2010-11-29
2010-11-28 November 2010 2010-11-30

Data Records for Monday, 29 November 2010

Time	Temp	Chill	HIndex	Humid	Dewpt	 Wind 	HiWind	WindDir	Rain 	Barom 
-----	----	-----	------	-----	-----	------	------	-------	-----	----- 
00:00	29.3	29.3	29.3	83	24.8	0	1	112	0.00	30.208 
00:05	29.1	29.1	29.1	83	24.6	0	1	112	0.00	30.208 
00:10	29.0	29.0	29.0	84	24.8	0	1	112	0.00	30.208 
00:15	28.8	28.8	28.8	84	24.6	0	0	---	0.00	30.209 
00:20	28.7	28.7	28.7	84	24.5	0	1	112	0.00	30.209 
00:25	28.8	28.8	28.8	84	24.6	0	2	112	0.00	30.209 
00:30	28.8	28.8	28.8	84	24.6	0	1	112	0.00	30.209 
00:35	28.7	28.7	28.7	84	24.5	0	0	---	0.00	30.209 
00:40	28.5	28.5	28.5	84	24.3	0	0	---	0.00	30.209 
00:45	28.4	28.4	28.4	84	24.2	0	0	---	0.00	30.211 
00:50	28.2	28.2	28.2	85	24.3	0	1	112	0.00	30.211 
00:55	28.2	28.2	28.2	85	24.3	0	1	112	0.00	30.211 
01:00	28.1	28.1	28.1	85	24.2	0	1	112	0.00	30.208 
01:05	28.1	28.1	28.1	85	24.2	0	0	---	0.00	30.208 
01:10	27.9	27.9	27.9	85	24.0	0	1	112	0.00	30.208 
01:15	28.1	28.1	28.1	86	24.5	0	2	112	0.00	30.207 
01:20	28.1	28.1	28.1	86	24.5	0	1	112	0.00	30.207 
01:25	28.2	28.2	28.2	86	24.6	0	1	112	0.00	30.207 
01:30	28.2	28.2	28.2	85	24.3	0	3	112	0.00	30.208 
01:35	28.4	28.4	28.4	85	24.5	0	2	112	0.00	30.208 
01:40	28.4	28.4	28.4	85	24.5	0	2	112	0.00	30.208 
01:45	28.2	28.2	28.2	85	24.3	0	1	112	0.00	30.209 
01:50	28.2	28.2	28.2	85	24.3	0	1	112	0.00	30.209 
01:55	27.9	27.9	27.9	85	24.0	0	1	112	0.00	30.209 
02:00	27.8	27.8	27.8	85	23.9	0	0	---	0.00	30.208 
02:05	27.5	27.5	27.5	85	23.6	0	0	---	0.00	30.208 
02:10	27.3	27.3	27.3	85	23.4	0	0	---	0.00	30.208 
02:15	27.2	27.2	27.2	85	23.3	0	0	---	0.00	30.211 
02:20	27.0	27.0	27.0	86	23.4	0	0	---	0.00	30.211 
02:25	27.0	27.0	27.0	86	23.4	0	1	112	0.00	30.211 
02:30	27.0	27.0	27.0	86	23.4	0	2	112	0.00	30.209 
02:35	27.2	27.2	27.2	87	23.9	0	1	112	0.00	30.209 
02:40	27.2	27.2	27.2	86	23.6	0	1	112	0.00	30.209 
02:45	27.2	27.2	27.2	86	23.6	0	2	112	0.00	30.215 
02:50	27.2	27.2	27.2	86	23.6	0	1	112	0.00	30.215 
02:55	27.0	27.0	27.0	86	23.4	0	1	112	0.00	30.215 
03:00	27.0	27.0	27.0	86	23.4	0	0	---	0.00	30.224 
03:05	26.9	26.9	26.9	86	23.3	0	1	112	0.00	30.224 
03:10	26.7	26.7	26.7	86	23.1	0	1	112	0.00	30.224 
03:15	26.6	26.6	26.6	86	23.0	0	0	---	0.00	30.225 
03:20	26.6	26.6	26.6	86	23.0	0	1	112	0.00	30.225 
03:25	26.3	26.3	26.3	86	22.7	0	0	---	0.00	30.225 
03:30	26.1	26.1	26.1	87	22.8	0	1	112	0.00	30.227 
03:35	26.1	26.1	26.1	87	22.8	0	1	112	0.00	30.227 
03:40	26.0	26.0	26.0	87	22.7	0	0	---	0.00	30.227 
03:45	25.8	25.8	25.8	87	22.5	0	1	112	0.00	30.226 
03:50	25.8	25.8	25.8	88	22.7	0	1	112	0.00	30.226 
03:55	26.0	26.0	26.0	88	22.9	0	2	112	0.00	30.226 
04:00	26.1	26.1	26.1	88	23.0	1	3	112	0.00	30.220 
04:05	26.4	26.4	26.4	88	23.3	1	2	112	0.00	30.220 
04:10	26.6	26.6	26.6	87	23.3	1	3	112	0.00	30.220 
04:15	26.6	26.6	26.6	87	23.3	0	2	112	0.00	30.218 
04:20	26.6	26.6	26.6	87	23.3	1	2	112	0.00	30.218 
04:25	26.6	26.6	26.6	87	23.3	1	3	112	0.00	30.218 
04:30	26.6	26.6	26.6	87	23.3	1	3	112	0.00	30.212 
04:35	26.6	26.6	26.6	86	23.0	0	2	112	0.00	30.212 
04:40	26.6	26.6	26.6	86	23.0	1	2	112	0.00	30.212 
04:45	26.6	26.6	26.6	86	23.0	1	2	112	0.00	30.211 
04:50	26.6	26.6	26.6	86	23.0	0	1	112	0.00	30.211 
04:55	26.6	26.6	26.6	86	23.0	0	1	112	0.00	30.211 
05:00	26.4	26.4	26.4	86	22.8	0	1	112	0.00	30.208 
05:05	26.4	26.4	26.4	86	22.8	0	1	112	0.00	30.208 
05:10	26.4	26.4	26.4	86	22.8	1	3	112	0.00	30.208 
05:15	26.3	26.3	26.3	86	22.7	0	1	112	0.00	30.203 
05:20	26.3	26.3	26.3	86	22.7	0	1	112	0.00	30.203 
05:25	26.3	26.3	26.3	86	22.7	0	2	112	0.00	30.203 
05:30	26.3	26.3	26.3	86	22.7	0	2	112	0.00	30.199 
05:35	26.3	26.3	26.3	86	22.7	0	2	112	0.00	30.199 
05:40	26.3	26.3	26.3	86	22.7	0	1	112	0.00	30.199 
05:45	26.3	26.3	26.3	86	22.7	0	2	112	0.00	30.199 
05:50	26.3	26.3	26.3	86	22.7	0	2	112	0.00	30.199 
05:55	26.4	26.4	26.4	86	22.8	0	2	112	0.00	30.199 
06:00	26.4	26.4	26.4	86	22.8	0	2	112	0.00	30.201 
06:05	26.4	26.4	26.4	85	22.5	0	2	112	0.00	30.201 
06:10	26.4	26.4	26.4	85	22.5	1	2	112	0.00	30.201 
06:15	26.3	26.3	26.3	85	22.4	0	1	112	0.00	30.202 
06:20	26.3	26.3	26.3	85	22.4	0	1	112	0.00	30.202 
06:25	26.1	26.1	26.1	85	22.2	0	1	112	0.00	30.202 
06:30	26.1	26.1	26.1	85	22.2	0	2	112	0.00	30.201 
06:35	26.0	26.0	26.0	85	22.1	0	1	112	0.00	30.201 
06:40	26.1	26.1	26.1	85	22.2	0	1	112	0.00	30.201 
06:45	26.1	26.1	26.1	85	22.2	0	1	112	0.00	30.201 
06:50	26.0	26.0	26.0	85	22.1	0	0	---	0.00	30.201 
06:55	26.0	26.0	26.0	85	22.1	0	0	---	0.00	30.201 
07:00	25.8	25.8	25.8	86	22.2	0	1	112	0.00	30.204 
07:05	25.8	25.8	25.8	85	21.9	0	0	---	0.00	30.204 
07:10	25.8	25.8	25.8	86	22.2	0	2	112	0.00	30.204 
07:15	25.8	25.8	25.8	86	22.2	0	1	112	0.00	30.208 
07:20	25.7	25.7	25.7	86	22.1	0	0	---	0.00	30.208 
07:25	25.7	25.7	25.7	86	22.1	0	1	112	0.00	30.208 
07:30	25.7	25.7	25.7	86	22.1	0	0	---	0.00	30.213 
07:35	25.7	25.7	25.7	86	22.1	0	1	112	0.00	30.213 
07:40	25.7	25.7	25.7	86	22.1	0	1	112	0.00	30.213 
07:45	25.7	25.7	25.7	86	22.1	0	0	---	0.00	30.217 
07:50	25.8	25.8	25.8	86	22.2	0	1	112	0.00	30.217 
07:55	25.8	25.8	25.8	86	22.2	0	1	112	0.00	30.217 
08:00	26.0	26.0	26.0	86	22.4	0	1	112	0.00	30.211 
08:05	26.1	26.1	26.1	86	22.5	0	1	112	0.00	30.211 
08:10	26.3	26.3	26.3	86	22.7	0	1	112	0.00	30.211 
08:15	26.7	26.7	26.7	86	23.1	0	1	112	0.00	30.209 
08:20	27.2	27.2	27.2	85	23.3	0	2	112	0.00	30.209 
08:25	27.6	27.6	27.6	84	23.4	0	1	112	0.00	30.209 
08:30	27.8	27.8	27.8	84	23.6	0	1	112	0.00	30.206 
08:35	27.9	27.9	27.9	84	23.7	0	1	112	0.00	30.206 
08:40	28.2	28.2	28.2	84	24.0	0	1	112	0.00	30.206 
08:45	28.5	28.5	28.5	84	24.3	0	1	112	0.00	30.213 
08:50	29.1	29.1	29.1	84	24.9	1	3	112	0.00	30.213 
08:55	29.7	29.7	29.7	83	25.2	1	2	112	0.00	30.213 
09:00	30.1	30.1	30.1	82	25.3	0	1	112	0.00	30.208 
09:05	30.6	30.6	30.6	82	25.8	0	1	112	0.00	30.208 
09:10	31.0	31.0	31.0	82	26.2	0	2	112	0.00	30.208 
09:15	31.6	31.6	31.6	82	26.7	1	2	112	0.00	30.205 
09:20	32.5	32.5	32.5	81	27.3	0	3	112	0.00	30.205 
09:25	33.7	33.7	33.7	79	27.9	0	2	112	0.00	30.205 
09:30	34.7	34.7	34.7	78	28.6	0	2	112	0.00	30.200 
09:35	35.5	35.5	35.5	77	29.0	1	3	90	0.00	30.200 
09:40	36.2	36.2	36.2	75	29.1	0	4	90	0.00	30.200 
09:45	36.8	36.8	36.8	74	29.3	1	2	112	0.00	30.194 
09:50	37.6	37.6	37.6	73	29.7	1	4	270	0.00	30.194 
09:55	38.6	38.6	38.6	71	30.0	1	6	22	0.00	30.194 
10:00	39.6	39.6	39.6	69	30.3	2	5	135	0.00	30.201 
10:05	40.3	40.3	40.3	67	30.2	1	6	90	0.00	30.201 
10:10	40.8	40.8	40.8	65	30.0	1	4	90	0.00	30.201 
10:15	41.2	41.2	41.2	65	30.3	2	6	90	0.00	30.198 
10:20	41.5	41.5	41.5	64	30.2	2	5	90	0.00	30.198 
10:25	42.1	42.1	42.1	64	30.8	2	5	90	0.00	30.198 
10:30	42.3	42.3	42.3	63	30.6	2	7	90	0.00	30.191 
10:35	42.8	42.8	42.8	63	31.1	2	10	112	0.00	30.191 
10:40	43.2	43.2	43.2	62	31.1	2	10	90	0.00	30.191 
10:45	43.5	43.5	43.5	62	31.4	3	6	90	0.00	30.187 
10:50	43.8	43.8	43.8	61	31.2	3	9	90	0.00	30.187 
10:55	43.9	43.9	43.9	60	30.9	3	7	68	0.00	30.187 
11:00	43.9	41.8	43.9	60	30.9	4	11	90	0.00	30.176 
11:05	44.1	44.1	44.1	61	31.5	2	6	90	0.00	30.176 
11:10	44.3	44.3	44.3	60	31.3	2	4	112	0.00	30.176 
11:15	44.8	44.8	44.8	60	31.8	2	7	315	0.00	30.174 
11:20	45.2	45.2	45.2	59	31.7	2	6	112	0.00	30.174 
11:25	45.2	45.2	45.2	59	31.7	2	5	112	0.00	30.174 
11:30	45.5	45.5	45.5	59	32.0	3	7	112	0.00	30.165 
11:35	45.8	45.8	45.8	59	32.3	2	6	90	0.00	30.165 
11:40	46.2	46.2	46.2	58	32.2	3	7	68	0.00	30.165 
11:45	46.4	46.4	46.4	59	32.9	2	10	45	0.00	30.158 
11:50	46.5	46.5	46.5	58	32.5	3	9	135	0.00	30.158 
11:55	46.7	46.7	46.7	59	33.1	2	6	90	0.00	30.158 
12:00	47.0	47.0	47.0	57	32.6	3	12	90	0.00	30.151 
12:05	47.3	47.3	47.3	58	33.3	2	6	112	0.00	30.151 
12:10	47.3	47.3	47.3	58	33.3	3	10	90	0.00	30.151 
12:15	47.6	47.6	47.6	58	33.6	2	4	90	0.00	30.141 
12:20	47.9	47.9	47.9	58	33.8	2	5	112	0.00	30.141 
12:25	48.2	48.2	48.2	58	34.1	2	11	90	0.00	30.141 
12:30	48.5	48.5	48.5	57	34.0	3	6	248	0.00	30.132 
12:35	48.5	48.5	48.5	57	34.0	3	9	90	0.00	30.132 
12:40	48.6	48.6	48.6	58	34.5	3	9	90	0.00	30.132 
12:45	48.8	48.8	48.8	58	34.7	2	7	90	0.00	30.122 
12:50	49.1	49.1	49.1	58	35.0	3	11	68	0.00	30.122 
12:55	49.1	49.1	49.1	57	34.5	3	9	90	0.00	30.122 
13:00	49.4	49.4	49.4	57	34.8	3	10	90	0.00	30.111 
13:05	49.4	49.4	49.4	58	35.2	3	9	90	0.00	30.111 
13:10	49.6	49.6	49.6	58	35.4	2	6	90	0.00	30.111 
13:15	49.8	49.8	49.8	57	35.2	3	7	90	0.00	30.091 
13:20	49.8	49.8	49.8	58	35.6	2	7	90	0.00	30.091 
13:25	49.9	49.9	49.9	58	35.7	2	8	90	0.00	30.091 
13:30	49.9	48.8	49.9	58	35.7	4	7	90	0.00	30.083 
13:35	49.8	48.6	49.8	58	35.6	4	7	90	0.00	30.083 
13:40	49.9	49.9	49.9	58	35.7	3	7	90	0.00	30.083 
13:45	50.1	50.1	50.1	58	35.9	3	11	112	0.00	30.072 
13:50	50.2	50.2	50.2	58	36.0	4	9	90	0.00	30.072 
13:55	50.4	50.4	50.4	59	36.6	2	7	90	0.00	30.072 
14:00	50.5	50.5	50.5	59	36.7	2	6	112	0.00	30.063 
14:05	50.7	50.7	50.7	58	36.5	3	11	90	0.00	30.063 
14:10	50.8	50.8	50.8	58	36.6	3	9	90	0.00	30.063 
14:15	50.8	50.8	50.8	58	36.6	3	9	90	0.00	30.056 
14:20	51.0	51.0	51.0	58	36.7	2	6	90	0.00	30.056 
14:25	51.1	51.1	51.1	58	36.8	3	7	112	0.00	30.056 
14:30	51.1	51.1	51.1	58	36.8	4	8	90	0.00	30.044 
14:35	51.1	51.1	51.1	58	36.8	4	10	90	0.00	30.044 
14:40	51.3	51.3	51.3	58	37.0	3	7	90	0.00	30.044 
14:45	51.4	51.4	51.4	58	37.1	3	9	90	0.00	30.039 
14:50	51.6	51.6	51.6	58	37.3	3	7	90	0.00	30.039 
14:55	51.6	51.6	51.6	58	37.3	3	10	90	0.00	30.039 
15:00	51.4	51.4	51.4	58	37.1	3	9	68	0.00	30.028 
15:05	51.4	51.4	51.4	58	37.1	3	9	112	0.00	30.028 
15:10	51.4	51.4	51.4	58	37.1	3	7	90	0.00	30.028 
15:15	51.3	51.3	51.3	58	37.0	3	9	68	0.00	30.012 
15:20	51.1	51.1	51.1	59	37.3	3	6	90	0.00	30.012 
15:25	51.0	51.0	51.0	60	37.6	3	7	90	0.00	30.012 
15:30	50.7	50.7	50.7	60	37.3	3	7	112	0.00	30.013 
15:35	50.5	50.5	50.5	61	37.6	3	7	90	0.00	30.013 
15:40	50.5	50.5	50.5	61	37.6	3	6	90	0.00	30.013 
15:45	50.4	50.4	50.4	62	37.9	2	6	112	0.00	30.008 
15:50	50.2	50.2	50.2	62	37.7	2	6	90	0.00	30.008 
15:55	50.1	50.1	50.1	62	37.6	2	4	90	0.00	30.008 
16:00	50.1	50.1	50.1	62	37.6	1	4	135	0.00	30.005 
16:05	50.2	50.2	50.2	62	37.7	1	4	112	0.00	30.005 
16:10	50.2	50.2	50.2	62	37.7	1	3	135	0.00	30.005 
16:15	50.2	50.2	50.2	63	38.1	2	4	68	0.00	30.005 
16:20	50.1	50.1	50.1	63	38.0	2	4	90	0.00	30.005 
16:25	50.1	50.1	50.1	64	38.4	1	3	135	0.00	30.005 
16:30	49.8	49.8	49.8	64	38.1	0	3	135	0.00	30.027 
16:35	49.5	49.5	49.5	65	38.2	0	1	135	0.00	30.027 
16:40	49.4	49.4	49.4	66	38.5	0	2	135	0.00	30.027 
16:45	49.2	49.2	49.2	66	38.3	0	4	158	0.00	30.036 
16:50	49.2	49.2	49.2	66	38.3	0	3	158	0.00	30.036 
16:55	49.1	49.1	49.1	66	38.2	0	2	112	0.00	30.036 
17:00	49.1	49.1	49.1	66	38.2	0	1	112	0.00	30.030 
17:05	48.8	48.8	48.8	67	38.3	0	2	112	0.00	30.030 
17:10	48.5	48.5	48.5	68	38.4	0	0	---	0.00	30.030 
17:15	48.0	48.0	48.0	68	37.9	0	0	---	0.00	30.033 
17:20	47.7	47.7	47.7	69	38.0	0	1	112	0.00	30.033 
17:25	47.1	47.1	47.1	70	37.8	0	2	112	0.00	30.033 
17:30	46.8	46.8	46.8	71	37.9	0	1	112	0.00	30.025 
17:35	46.7	46.7	46.7	72	38.2	0	1	112	0.00	30.025 
17:40	46.7	46.7	46.7	72	38.2	0	2	112	0.00	30.025 
17:45	46.7	46.7	46.7	72	38.2	0	2	112	0.00	30.012 
17:50	46.8	46.8	46.8	72	38.3	0	3	112	0.00	30.012 
17:55	46.8	46.8	46.8	72	38.3	0	1	112	0.00	30.012 
18:00	46.5	46.5	46.5	72	38.0	0	1	112	0.00	30.001 
18:05	46.4	46.4	46.4	73	38.2	0	2	112	0.00	30.001 
18:10	46.1	46.1	46.1	73	37.9	0	0	---	0.00	30.001 
18:15	45.8	45.8	45.8	74	38.0	0	1	112	0.00	30.005 
18:20	45.5	45.5	45.5	75	38.0	0	2	112	0.00	30.005 
18:25	45.2	45.2	45.2	75	37.8	0	1	112	0.00	30.005 
18:30	45.2	45.2	45.2	76	38.1	0	1	112	0.00	30.001 
18:35	45.2	45.2	45.2	76	38.1	1	2	112	0.00	30.001 
18:40	45.2	45.2	45.2	75	37.8	2	3	112	0.00	30.001 
18:45	45.4	45.4	45.4	74	37.6	2	4	112	0.00	29.983 
18:50	45.7	45.7	45.7	73	37.5	2	5	68	0.00	29.983 
18:55	45.8	45.8	45.8	72	37.3	1	4	90	0.00	29.983 
19:00	45.8	45.8	45.8	72	37.3	0	2	90	0.00	29.979 
19:05	45.8	45.8	45.8	71	36.9	2	5	90	0.00	29.979 
19:10	45.5	45.5	45.5	72	37.0	1	3	90	0.00	29.979 
19:15	45.4	45.4	45.4	72	36.9	1	4	90	0.00	29.979 
19:20	45.2	45.2	45.2	72	36.7	1	3	90	0.00	29.979 
19:25	45.4	45.4	45.4	72	36.9	2	5	112	0.00	29.979 
19:30	45.4	45.4	45.4	72	36.9	2	4	112	0.00	29.973 
19:35	45.4	45.4	45.4	72	36.9	2	4	68	0.00	29.973 
19:40	45.2	45.2	45.2	72	36.7	2	4	68	0.00	29.973 
19:45	45.2	45.2	45.2	72	36.7	1	3	90	0.00	29.971 
19:50	45.2	45.2	45.2	72	36.7	2	4	90	0.00	29.971 
19:55	45.2	45.2	45.2	72	36.7	3	5	90	0.00	29.971 
20:00	45.2	45.2	45.2	73	37.1	2	5	90	0.00	29.970 
20:05	45.2	45.2	45.2	72	36.7	2	6	90	0.00	29.970 
20:10	45.2	45.2	45.2	72	36.7	2	5	90	0.00	29.970 
20:15	45.4	45.4	45.4	72	36.9	2	6	112	0.00	29.959 
20:20	45.2	45.2	45.2	71	36.4	2	5	90	0.00	29.959 
20:25	45.2	45.2	45.2	70	36.0	3	5	90	0.00	29.959 
20:30	45.2	45.2	45.2	70	36.0	3	6	90	0.00	29.945 
20:35	45.2	45.2	45.2	70	36.0	3	6	90	0.00	29.945 
20:40	45.1	45.1	45.1	70	35.9	2	5	90	0.00	29.945 
20:45	45.1	45.1	45.1	70	35.9	3	5	90	0.00	29.933 
20:50	45.1	45.1	45.1	70	35.9	2	4	90	0.00	29.933 
20:55	45.1	45.1	45.1	69	35.5	3	7	68	0.00	29.933 
21:00	45.2	45.2	45.2	69	35.6	3	5	90	0.00	29.916 
21:05	45.2	45.2	45.2	69	35.6	3	11	90	0.00	29.916 
21:10	45.4	45.4	45.4	69	35.8	3	6	112	0.00	29.916 
21:15	45.4	45.4	45.4	68	35.5	3	6	112	0.00	29.909 
21:20	45.5	45.5	45.5	69	35.9	2	4	90	0.00	29.909 
21:25	45.5	45.5	45.5	69	35.9	2	5	68	0.00	29.909 
21:30	45.5	45.5	45.5	69	35.9	2	5	90	0.00	29.908 
21:35	45.4	45.4	45.4	70	36.2	2	4	90	0.00	29.908 
21:40	45.2	45.2	45.2	71	36.4	2	5	90	0.00	29.908 
21:45	45.1	45.1	45.1	72	36.6	2	4	90	0.00	29.896 
21:50	44.9	44.9	44.9	73	36.8	2	4	90	0.00	29.896 
21:55	44.8	44.8	44.8	75	37.4	2	5	68	0.00	29.896 
22:00	44.6	44.6	44.6	76	37.5	1	4	68	0.00	29.894 
22:05	44.5	44.5	44.5	77	37.7	2	4	68	0.01	29.894 
22:10	44.2	44.2	44.2	79	38.1	1	3	68	0.00	29.894 
22:15	44.1	44.1	44.1	81	38.6	1	3	68	0.01	29.880 
22:20	43.8	43.8	43.8	82	38.7	1	4	90	0.00	29.880 
22:25	43.6	43.6	43.6	83	38.8	1	4	90	0.01	29.880 
22:30	43.5	43.5	43.5	84	39.0	2	4	90	0.00	29.858 
22:35	43.3	43.3	43.3	85	39.1	2	5	90	0.01	29.858 
22:40	43.2	43.2	43.2	85	39.0	2	5	90	0.01	29.858 
22:45	43.2	43.2	43.2	86	39.3	2	5	90	0.00	29.845 
22:50	43.2	43.2	43.2	86	39.3	2	6	68	0.00	29.845 
22:55	43.2	43.2	43.2	87	39.6	2	3	68	0.01	29.845 
23:00	43.2	43.2	43.2	87	39.6	3	5	90	0.00	29.839 
23:05	43.2	43.2	43.2	87	39.6	2	5	112	0.00	29.839 
23:10	43.3	43.3	43.3	87	39.7	2	6	90	0.00	29.839 
23:15	43.3	43.3	43.3	87	39.7	1	4	90	0.00	29.825 
23:20	43.3	43.3	43.3	88	40.0	1	4	90	0.02	29.825 
23:25	43.3	43.3	43.3	88	40.0	1	3	90	0.00	29.825 
23:30	43.3	43.3	43.3	88	40.0	2	5	90	0.01	29.814 
23:35	43.5	43.5	43.5	88	40.2	2	4	90	0.00	29.814 
23:40	43.6	43.6	43.6	88	40.3	2	5	90	0.01	29.814 
23:45	43.8	43.8	43.8	88	40.5	3	5	112	0.00	29.809 
23:50	43.9	43.9	43.9	88	40.6	3	6	90	0.01	29.809 
23:55	43.9	43.9	43.9	88	40.6	3	5	90	0.01	29.809 

CoCoRaHS
IN-AL-39
A2 Web Hosting
Creative Commons License
GoDaddy
search engine by freefind advanced

loaded 2018-11-16 11:11:44 • last modified 2010-11-18 10:43:29
Privacy PolicyDisclaimer
• wx.awcolley.com is powered by PmWiki v.2002016 •
• all content (unless otherwise noted) © 2018 A W Colley